Time;durP1;ratioP1;P1;durP2;ratioP2;P2;SDS_P1;SDS_P2;PMS_P1;PMS_P2;Temp;Humidity;BMP_temperature;BMP_pressure;BME280_temperature;BME280_humidity;BME280_pressure;Samples;Min_cycle;Max_cycle;Signal;HPM_P1;HPM_P2
2022/11/03 00:01:52;;;;;;;10.40;2.15;;;10.90;99.90;;;;;;5084611;28;20105;-69
2022/11/03 00:04:20;;;;;;;12.93;2.22;;;10.90;99.90;;;;;;5083884;28;20048;-69
2022/11/03 00:06:48;;;;;;;10.95;2.03;;;10.90;99.90;;;;;;5085444;28;20051;-69
2022/11/03 00:09:15;;;;;;;14.48;2.38;;;10.90;99.90;;;;;;5083871;28;20387;-69
2022/11/03 00:11:42;;;;;;;8.48;1.42;;;10.90;99.90;;;;;;5084932;28;20066;-69
2022/11/03 00:14:09;;;;;;;8.05;1.85;;;10.90;99.90;;;;;;5086845;28;20093;-69
2022/11/03 00:16:35;;;;;;;12.88;1.90;;;10.90;99.90;;;;;;5085935;28;20539;-69
2022/11/03 00:19:01;;;;;;;9.50;1.90;;;10.90;99.90;;;;;;5086932;28;20047;-69
2022/11/03 00:21:27;;;;;;;13.18;2.35;;;10.90;99.90;;;;;;5086085;28;20110;-69
2022/11/03 00:23:53;;;;;;;4.40;1.00;;;10.90;99.90;;;;;;5087181;28;20036;-69
2022/11/03 00:26:21;;;;;;;10.30;1.92;;;11.00;99.90;;;;;;5084604;28;20556;-69
2022/11/03 00:28:50;;;;;;;16.40;2.22;;;11.00;99.90;;;;;;5084089;28;20048;-69
2022/11/03 00:31:43;;;;;;;14.38;1.98;;;11.00;99.90;;;;;;5083661;28;20040;-69
2022/11/03 00:34:09;;;;;;;4.55;1.08;;;10.90;99.90;;;;;;5104204;28;20482;-69
2022/11/03 00:36:38;;;;;;;7.25;1.10;;;10.90;99.90;;;;;;5086576;28;20066;-69
2022/11/03 00:39:05;;;;;;;10.55;1.85;;;10.90;99.90;;;;;;5085006;28;20044;-69
2022/11/03 00:41:31;;;;;;;6.28;1.35;;;10.90;99.90;;;;;;5085513;28;20048;-69
2022/11/03 00:43:57;;;;;;;11.82;2.30;;;10.90;99.90;;;;;;5086189;28;20559;-69
2022/11/03 00:46:24;;;;;;;6.63;1.85;;;10.90;99.90;;;;;;5083134;28;20040;-69
2022/11/03 00:48:50;;;;;;;11.60;2.00;;;10.90;99.90;;;;;;5086555;28;20443;-68
2022/11/03 00:51:28;;;;;;;7.10;1.40;;;10.90;99.90;;;;;;5085434;28;20040;-69
2022/11/03 00:53:59;;;;;;;15.15;2.33;;;10.90;99.90;;;;;;5087512;28;20048;-70
2022/11/03 00:56:29;;;;;;;11.90;1.80;;;10.90;99.90;;;;;;5087025;28;20412;-69
2022/11/03 00:58:56;;;;;;;12.63;2.10;;;10.90;99.90;;;;;;5076623;28;20080;-70
2022/11/03 01:01:25;;;;;;;10.02;1.90;;;10.90;99.90;;;;;;5087514;28;20044;-69
2022/11/03 01:06:50;;;;;;;9.85;1.98;;;10.90;99.90;;;;;;5088281;28;20421;-69
2022/11/03 01:09:21;;;;;;;12.65;3.40;;;10.80;99.90;;;;;;5075944;28;20606;-69
2022/11/03 01:12:00;;;;;;;10.77;1.70;;;10.80;99.90;;;;;;5077108;28;20098;-69
2022/11/03 01:14:35;;;;;;;12.77;2.45;;;10.80;99.90;;;;;;5089711;28;20055;-69
2022/11/03 01:17:08;;;;;;;9.25;2.10;;;10.70;99.90;;;;;;5088316;28;20040;-69
2022/11/03 01:19:34;;;;;;;14.77;2.40;;;10.70;99.90;;;;;;5089783;28;20096;-78
2022/11/03 01:21:59;;;;;;;21.42;3.05;;;10.70;99.90;;;;;;5087359;28;20391;-69
2022/11/03 01:24:25;;;;;;;13.95;2.70;;;10.70;99.90;;;;;;5088826;28;20394;-69
2022/11/03 01:26:51;;;;;;;12.32;2.33;;;10.60;99.90;;;;;;5087508;28;20105;-73
2022/11/03 01:29:17;;;;;;;6.72;2.22;;;10.60;99.90;;;;;;5105951;27;20047;-69
2022/11/03 01:31:42;;;;;;;14.80;2.13;;;10.60;99.90;;;;;;5084919;28;20524;-69
2022/11/03 01:34:16;;;;;;;18.70;2.28;;;10.60;99.90;;;;;;5084866;28;20028;-69
2022/11/03 01:36:43;;;;;;;8.63;1.60;;;10.50;99.90;;;;;;5087354;28;20143;-68
2022/11/03 01:39:14;;;;;;;12.43;1.88;;;10.50;99.90;;;;;;5085759;28;20426;-81
2022/11/03 01:41:41;;;;;;;7.95;2.00;;;10.40;99.90;;;;;;5084344;28;20040;-68
2022/11/03 01:44:06;;;;;;;13.25;2.20;;;10.40;99.90;;;;;;5084191;28;20482;-69
2022/11/03 01:46:38;;;;;;;14.43;1.90;;;10.40;99.90;;;;;;5085469;28;20040;-69
2022/11/03 01:49:16;;;;;;;17.92;3.33;;;10.40;99.90;;;;;;5082640;28;20063;-69
2022/11/03 01:51:46;;;;;;;12.43;3.30;;;10.40;99.90;;;;;;5068457;28;20410;-69
2022/11/03 01:54:17;;;;;;;11.68;1.90;;;10.40;99.90;;;;;;5069760;28;20360;-68
2022/11/03 01:56:45;;;;;;;12.38;2.88;;;10.40;99.90;;;;;;5073919;28;20487;-69
2022/11/03 01:59:14;;;;;;;7.75;1.73;;;10.40;99.90;;;;;;5068723;28;20055;-68
2022/11/03 02:01:41;;;;;;;10.48;2.15;;;10.40;99.90;;;;;;5080195;28;20052;-69
2022/11/03 02:04:35;;;;;;;14.05;2.47;;;10.40;99.90;;;;;;5065918;28;20053;-70
2022/11/03 02:07:17;;;;;;;13.95;1.98;;;10.40;99.90;;;;;;5082894;28;20087;-69
2022/11/03 02:09:43;;;;;;;12.30;1.95;;;10.30;99.90;;;;;;5067672;28;20052;-74
2022/11/03 02:12:09;;;;;;;18.42;2.70;;;10.30;99.90;;;;;;5082420;28;20391;-69
2022/11/03 02:14:41;;;;;;;11.68;1.70;;;10.30;99.90;;;;;;5086767;28;20048;-68
2022/11/03 02:17:12;;;;;;;5.82;1.60;;;10.30;99.90;;;;;;5086413;28;20149;-68
2022/11/03 02:19:53;;;;;;;16.73;2.35;;;10.20;99.90;;;;;;5088455;28;20040;-68
2022/11/03 02:22:56;;;;;;;16.52;3.47;;;10.20;99.90;;;;;;5072193;28;20052;-80
2022/11/03 02:25:42;;;;;;;12.80;2.75;;;10.20;99.90;;;;;;5078874;28;20048;-79
2022/11/03 02:28:09;;;;;;;8.43;1.73;;;10.10;99.90;;;;;;5086316;28;20459;-69
2022/11/03 02:30:45;;;;;;;14.82;1.95;;;10.10;99.90;;;;;;5087379;28;20547;-69
2022/11/03 02:33:19;;;;;;;10.57;1.70;;;10.10;99.90;;;;;;5082106;28;20470;-69
2022/11/03 02:35:51;;;;;;;9.52;2.22;;;10.10;99.90;;;;;;5078685;28;20476;-69
2022/11/03 02:38:21;;;;;;;11.13;1.95;;;10.10;99.90;;;;;;5087775;28;20047;-68
2022/11/03 02:40:52;;;;;;;14.15;2.63;;;10.10;99.90;;;;;;5088905;28;20093;-73
2022/11/03 02:43:19;;;;;;;11.77;1.80;;;10.00;99.90;;;;;;5087788;28;20089;-83
2022/11/03 02:45:47;;;;;;;13.18;2.20;;;10.00;99.90;;;;;;5089782;28;20080;-69
2022/11/03 02:48:14;;;;;;;11.57;2.53;;;9.90;99.90;;;;;;5087458;28;20040;-69
2022/11/03 02:50:40;;;;;;;8.63;2.13;;;9.90;99.90;;;;;;5089441;28;20322;-68
2022/11/03 02:53:10;;;;;;;13.05;3.80;;;9.80;99.90;;;;;;5086663;28;20079;-75
2022/11/03 02:55:52;;;;;;;16.63;2.47;;;9.80;99.90;;;;;;5087950;28;20131;-69
2022/11/03 02:58:51;;;;;;;9.15;2.33;;;9.70;99.90;;;;;;5087191;28;20118;-68
2022/11/03 03:01:26;;;;;;;15.48;2.38;;;9.70;99.90;;;;;;5086605;28;20044;-72
2022/11/03 03:03:57;;;;;;;12.35;2.38;;;9.70;99.90;;;;;;5087967;28;20441;-68
2022/11/03 03:06:32;;;;;;;12.57;2.53;;;9.60;99.90;;;;;;5085262;28;20059;-68
2022/11/03 03:09:03;;;;;;;9.77;1.98;;;9.60;99.90;;;;;;5082307;28;20043;-69
2022/11/03 03:11:38;;;;;;;14.35;2.25;;;9.60;99.90;;;;;;5075756;28;20043;-69
2022/11/03 03:14:33;;;;;;;10.43;2.13;;;9.60;99.90;;;;;;5086090;28;20173;-73
2022/11/03 03:17:18;;;;;;;14.95;2.03;;;9.60;99.90;;;;;;5087074;28;20410;-69
2022/11/03 03:20:04;;;;;;;15.48;2.30;;;9.60;99.90;;;;;;5087580;28;20044;-68
2022/11/03 03:22:44;;;;;;;11.32;2.30;;;9.60;99.90;;;;;;5086283;28;20497;-69
2022/11/03 03:25:22;;;;;;;11.45;1.83;;;9.60;99.90;;;;;;5087756;28;20123;-73
2022/11/03 03:27:52;;;;;;;14.73;2.83;;;9.60;99.90;;;;;;5086690;28;20072;-68
2022/11/03 03:30:18;;;;;;;12.82;2.80;;;9.60;99.90;;;;;;5085835;28;20044;-68
2022/11/03 03:32:47;;;;;;;13.55;2.50;;;9.60;99.90;;;;;;5086946;28;20069;-68
2022/11/03 03:35:18;;;;;;;7.95;1.75;;;9.60;99.90;;;;;;5086159;28;20051;-68
2022/11/03 03:37:49;;;;;;;14.27;2.33;;;9.70;99.90;;;;;;5087059;28;20048;-68
2022/11/03 03:40:19;;;;;;;;;;;9.70;99.90;;;;;;5078235;28;20043;-83
2022/11/03 03:42:46;;;;;;;8.95;2.78;;;9.70;99.90;;;;;;5087651;28;19967;-68
2022/11/03 03:45:13;;;;;;;9.90;2.28;;;9.80;99.90;;;;;;5085820;28;20056;-83
2022/11/03 03:47:39;;;;;;;11.55;2.38;;;9.80;99.90;;;;;;5087400;28;20113;-69
2022/11/03 03:50:06;;;;;;;7.53;2.05;;;9.70;99.90;;;;;;5086347;28;20445;-69
2022/11/03 03:52:34;;;;;;;11.90;2.20;;;9.80;99.90;;;;;;5086468;28;20043;-68
2022/11/03 03:55:00;;;;;;;11.25;2.05;;;9.70;99.90;;;;;;5073314;28;20044;-69
2022/11/03 03:57:29;;;;;;;6.40;1.75;;;9.70;99.90;;;;;;5084525;28;20052;-69
2022/11/03 03:59:55;;;;;;;12.63;2.40;;;9.70;99.90;;;;;;5069024;28;20044;-75
2022/11/03 04:02:21;;;;;;;10.00;3.13;;;9.70;99.90;;;;;;5100800;28;20071;-84
2022/11/03 04:04:46;;;;;;;14.57;2.33;;;9.60;99.90;;;;;;5085856;28;20080;-68
2022/11/03 04:09:56;;;;;;;10.23;2.10;;;9.60;99.90;;;;;;5070068;28;20040;-68
2022/11/03 04:23:25;;;;;;;16.90;2.60;;;9.60;99.90;;;;;;5085316;28;20072;-78
2022/11/03 04:25:53;;;;;;;11.75;2.33;;;9.60;99.90;;;;;;5087241;28;20086;-69
2022/11/03 04:28:19;;;;;;;13.60;2.38;;;9.60;99.90;;;;;;5087661;28;20100;-80
2022/11/03 04:30:45;;;;;;;13.52;2.33;;;9.60;99.90;;;;;;5090826;28;20531;-69
2022/11/03 04:33:29;;;;;;;10.07;1.95;;;9.60;99.90;;;;;;5089269;28;20040;-71
2022/11/03 04:35:58;;;;;;;10.05;2.25;;;9.60;99.90;;;;;;5089652;28;20075;-68
2022/11/03 04:38:26;;;;;;;13.57;2.35;;;9.60;99.90;;;;;;5090685;28;20101;-69
2022/11/03 04:40:54;;;;;;;13.25;2.92;;;9.60;99.90;;;;;;5089176;28;20490;-68
2022/11/03 04:43:23;;;;;;;12.80;2.03;;;9.60;99.90;;;;;;5090545;28;20118;-68
2022/11/03 04:45:49;;;;;;;6.03;1.38;;;9.60;99.90;;;;;;5089835;28;20044;-72
2022/11/03 04:48:21;;;;;;;12.88;2.38;;;9.60;99.90;;;;;;5090519;28;20471;-70
2022/11/03 04:50:50;;;;;;;14.40;1.92;;;9.60;99.90;;;;;;5089265;28;20048;-68
2022/11/03 04:53:18;;;;;;;12.35;2.20;;;9.60;99.90;;;;;;5088893;28;20379;-80
2022/11/03 04:55:45;;;;;;;10.63;2.05;;;9.60;99.90;;;;;;5090689;28;20074;-78
2022/11/03 04:58:20;;;;;;;13.75;2.22;;;9.60;99.90;;;;;;5087746;28;20442;-88
2022/11/03 05:00:50;;;;;;;13.70;2.80;;;9.70;99.90;;;;;;5089443;28;20501;-68
2022/11/03 05:03:21;;;;;;;9.15;2.30;;;9.60;99.90;;;;;;5083464;28;20047;-68
2022/11/03 05:05:47;;;;;;;17.67;2.28;;;9.60;99.90;;;;;;5089768;28;20090;-68
2022/11/03 05:08:16;;;;;;;12.48;2.08;;;9.50;99.90;;;;;;5075373;28;20076;-74
2022/11/03 05:10:42;;;;;;;13.57;2.50;;;9.50;99.90;;;;;;5073461;28;20053;-68
2022/11/03 05:13:23;;;;;;;14.90;2.30;;;9.50;99.90;;;;;;5090338;28;20039;-68
2022/11/03 05:15:51;;;;;;;14.38;3.05;;;9.60;99.90;;;;;;5088786;28;20086;-68
2022/11/03 05:18:20;;;;;;;10.63;2.20;;;9.60;99.90;;;;;;5089471;28;20136;-68
2022/11/03 05:20:56;;;;;;;19.83;2.60;;;9.60;99.90;;;;;;5089575;28;20044;-68
2022/11/03 05:23:23;;;;;;;13.43;1.92;;;9.60;99.90;;;;;;5087752;28;20058;-70
2022/11/03 05:25:51;;;;;;;14.63;2.25;;;9.60;99.90;;;;;;5090309;28;20097;-67
2022/11/03 05:28:25;;;;;;;9.52;1.98;;;9.60;99.90;;;;;;5088275;28;20040;-68
2022/11/03 05:30:51;;;;;;;10.60;2.28;;;9.70;99.90;;;;;;5089303;28;20044;-68
2022/11/03 05:33:29;;;;;;;18.40;2.85;;;9.70;99.90;;;;;;5087496;28;20059;-68
2022/11/03 05:36:01;;;;;;;6.82;1.88;;;9.70;99.90;;;;;;5089352;28;20039;-68
2022/11/03 05:38:31;;;;;;;10.77;1.85;;;9.70;99.90;;;;;;5089434;28;20088;-68
2022/11/03 05:40:58;;;;;;;9.52;2.33;;;9.80;99.90;;;;;;5086739;28;20105;-72
2022/11/03 05:43:26;;;;;;;7.15;2.15;;;9.80;99.90;;;;;;5089079;28;20051;-68
2022/11/03 05:45:57;;;;;;;14.70;2.50;;;9.80;99.90;;;;;;5088610;28;20076;-68
2022/11/03 05:48:33;;;;;;;11.82;2.20;;;9.80;99.90;;;;;;5089390;28;20071;-69
2022/11/03 05:51:01;;;;;;;11.43;2.35;;;9.80;99.90;;;;;;5087531;28;20052;-68
2022/11/03 05:53:37;;;;;;;15.10;2.10;;;9.80;99.90;;;;;;5088030;28;20097;-68
2022/11/03 05:56:05;;;;;;;9.45;1.77;;;9.70;99.90;;;;;;5087912;28;20076;-68
2022/11/03 05:58:39;;;;;;;10.63;1.85;;;9.70;99.90;;;;;;5087620;28;20043;-69
2022/11/03 06:01:29;;;;;;;12.77;2.28;;;9.70;99.90;;;;;;5084107;28;20080;-71
2022/11/03 06:03:58;;;;;;;7.75;1.60;;;9.70;99.90;;;;;;5072751;28;20115;-76
2022/11/03 06:06:35;;;;;;;14.02;2.00;;;9.60;99.90;;;;;;5068160;28;20098;-83
2022/11/03 06:09:17;;;;;;;15.57;2.45;;;9.70;99.90;;;;;;5069086;28;20149;-70
2022/11/03 06:11:44;;;;;;;10.55;2.10;;;9.70;99.90;;;;;;5077838;28;20048;-71
2022/11/03 06:14:36;;;;;;;8.50;1.90;;;9.60;99.90;;;;;;5087420;28;20048;-68
2022/11/03 06:17:06;;;;;;;10.35;2.22;;;9.70;99.90;;;;;;5085278;28;20060;-68
2022/11/03 06:19:36;;;;;;;13.95;2.50;;;9.70;99.90;;;;;;5087511;28;20913;-68
2022/11/03 06:22:10;;;;;;;7.93;2.00;;;9.70;99.90;;;;;;5089260;28;20040;-67
2022/11/03 06:24:35;;;;;;;12.15;3.33;;;9.60;99.90;;;;;;5087027;28;20036;-68
2022/11/03 06:27:02;;;;;;;14.45;2.40;;;9.60;99.90;;;;;;5088978;28;20489;-68
2022/11/03 06:29:31;;;;;;;17.15;3.05;;;9.60;99.90;;;;;;5086743;28;20083;-68
2022/11/03 06:31:56;;;;;;;18.05;2.50;;;9.60;99.90;;;;;;5088614;28;20055;-68
2022/11/03 06:34:33;;;;;;;11.80;2.30;;;9.60;99.90;;;;;;5085796;28;20044;-68
2022/11/03 06:37:09;;;;;;;12.23;1.95;;;9.60;99.90;;;;;;5086747;28;20044;-68
2022/11/03 06:39:35;;;;;;;14.65;2.28;;;9.70;99.90;;;;;;5087771;28;20044;-69
2022/11/03 06:42:11;;;;;;;12.23;2.05;;;9.70;99.90;;;;;;5087626;28;20116;-74
2022/11/03 06:44:40;;;;;;;9.95;1.90;;;9.70;99.90;;;;;;5088117;28;20048;-67
2022/11/03 06:47:21;;;;;;;11.77;1.77;;;9.70;99.90;;;;;;5087503;28;20495;-67
2022/11/03 06:49:47;;;;;;;11.88;2.15;;;9.70;99.90;;;;;;5087714;28;20067;-68
2022/11/03 06:52:28;;;;;;;11.38;2.17;;;9.70;99.90;;;;;;5087335;28;20083;-67
2022/11/03 06:55:08;;;;;;;11.43;1.75;;;9.70;99.90;;;;;;5085348;28;20167;-67
2022/11/03 06:57:37;;;;;;;9.55;1.90;;;9.70;99.90;;;;;;5067660;28;20044;-68
2022/11/03 07:00:19;;;;;;;4.68;1.75;;;9.70;99.90;;;;;;5066678;28;20398;-70
2022/11/03 07:03:15;;;;;;;12.60;2.22;;;9.70;99.90;;;;;;5077533;28;20044;-68
2022/11/03 07:05:44;;;;;;;8.57;1.65;;;9.70;99.90;;;;;;5083101;28;20041;-68
2022/11/03 07:08:29;;;;;;;7.95;2.10;;;9.70;99.90;;;;;;5066668;28;20048;-68
2022/11/03 07:11:15;;;;;;;9.98;1.85;;;9.70;99.90;;;;;;5071025;28;20040;-68
2022/11/03 07:13:42;;;;;;;12.40;2.22;;;9.80;99.90;;;;;;5086948;28;20046;-68
2022/11/03 07:16:26;;;;;;;12.02;2.22;;;9.80;99.90;;;;;;5086605;28;20043;-68
2022/11/03 07:18:52;;;;;;;10.32;2.17;;;9.80;99.90;;;;;;5088512;28;20427;-68
2022/11/03 07:21:29;;;;;;;14.52;1.90;;;9.80;99.90;;;;;;5086655;28;20040;-71
2022/11/03 07:23:58;;;;;;;12.35;2.38;;;9.90;99.90;;;;;;5087865;28;20502;-69
2022/11/03 07:26:25;;;;;;;16.40;2.15;;;9.90;99.90;;;;;;5078679;28;20067;-70
2022/11/03 07:28:51;;;;;;;11.85;2.20;;;9.90;99.90;;;;;;5086950;28;20397;-69
2022/11/03 07:31:25;;;;;;;12.07;2.15;;;10.00;99.90;;;;;;5084826;28;20494;-70
2022/11/03 07:33:58;;;;;;;8.85;1.75;;;10.00;99.90;;;;;;5082555;28;20075;-69
2022/11/03 07:36:26;;;;;;;9.95;1.95;;;10.10;99.90;;;;;;5073252;28;20083;-70
2022/11/03 07:38:55;;;;;;;8.57;1.40;;;10.10;99.90;;;;;;5075204;28;20080;-70
2022/11/03 07:41:24;;;;;;;13.23;2.20;;;10.10;99.90;;;;;;5071641;28;20032;-71
2022/11/03 07:43:58;;;;;;;14.57;2.30;;;10.20;99.90;;;;;;5080048;28;20044;-68
2022/11/03 07:46:25;;;;;;;11.75;2.50;;;10.20;99.90;;;;;;5080955;28;20052;-68
2022/11/03 07:48:57;;;;;;;15.55;2.28;;;10.30;99.90;;;;;;5085892;28;20410;-69
2022/11/03 07:51:30;;;;;;;6.65;1.60;;;10.40;99.90;;;;;;5071599;28;20040;-68
2022/11/03 07:54:07;;;;;;;10.10;2.05;;;10.50;99.90;;;;;;5079839;28;20394;-69
2022/11/03 07:56:37;;;;;;;6.25;1.67;;;10.50;99.90;;;;;;5077828;28;20048;-68
2022/11/03 07:59:12;;;;;;;8.18;1.95;;;10.60;99.90;;;;;;5081677;28;20118;-68
2022/11/03 08:01:46;;;;;;;14.93;2.45;;;10.70;99.90;;;;;;5083587;28;20036;-69
2022/11/03 08:04:19;;;;;;;9.23;2.40;;;10.70;99.90;;;;;;5077163;28;20040;-68
2022/11/03 08:06:44;;;;;;;12.15;1.83;;;10.80;99.90;;;;;;5088876;28;20410;-68
2022/11/03 08:09:10;;;;;;;11.55;1.88;;;10.80;99.90;;;;;;5068903;28;20040;-69
2022/11/03 08:11:36;;;;;;;7.53;1.67;;;10.90;99.90;;;;;;5088890;28;20604;-69
2022/11/03 08:14:01;;;;;;;9.82;2.00;;;11.00;99.90;;;;;;5085271;28;20036;-68
2022/11/03 08:16:27;;;;;;;9.75;1.55;;;11.00;99.90;;;;;;5080347;28;20044;-68
2022/11/03 08:18:53;;;;;;;9.73;1.98;;;11.10;99.90;;;;;;5088324;28;20046;-70
2022/11/03 08:21:19;;;;;;;9.15;1.67;;;11.10;99.90;;;;;;5084465;28;20032;-73
2022/11/03 08:23:44;;;;;;;13.77;1.90;;;11.20;99.90;;;;;;5083660;28;20082;-68
2022/11/03 08:26:10;;;;;;;5.25;1.63;;;11.20;99.90;;;;;;5085790;28;20041;-68
2022/11/03 08:28:36;;;;;;;12.07;1.88;;;11.30;99.90;;;;;;5071712;28;20055;-71
2022/11/03 08:31:03;;;;;;;9.30;2.40;;;11.30;99.90;;;;;;5084703;28;20036;-68
2022/11/03 08:33:34;;;;;;;9.30;1.70;;;11.40;99.90;;;;;;5089083;28;20554;-68
2022/11/03 08:36:00;;;;;;;;;;;11.50;99.90;;;;;;5090411;28;20087;-68
2022/11/03 08:38:26;;;;;;;14.00;2.97;;;11.50;99.90;;;;;;5084140;28;20370;-68
2022/11/03 08:40:53;;;;;;;10.00;2.72;;;11.60;99.90;;;;;;5083193;28;20055;-69
2022/11/03 08:43:18;;;;;;;10.23;1.98;;;11.60;99.90;;;;;;5088358;28;20047;-68
2022/11/03 08:45:44;;;;;;;13.63;2.05;;;11.70;99.90;;;;;;5081645;28;20028;-69
2022/11/03 08:48:10;;;;;;;6.55;1.58;;;11.80;99.90;;;;;;5081059;28;20492;-69
2022/11/03 08:50:36;;;;;;;9.55;2.20;;;11.80;99.90;;;;;;5088183;28;20059;-68
2022/11/03 08:53:02;;;;;;;21.15;2.88;;;11.90;99.90;;;;;;5083889;28;20498;-69
2022/11/03 08:55:27;;;;;;;12.82;3.13;;;11.90;99.90;;;;;;5083106;28;20048;-69
2022/11/03 08:57:53;;;;;;;11.85;1.95;;;12.10;99.90;;;;;;5079990;28;20486;-69
2022/11/03 09:00:19;;;;;;;8.40;2.00;;;12.10;99.90;;;;;;5072196;28;20027;-68
2022/11/03 09:02:45;;;;;;;9.10;2.08;;;12.10;99.90;;;;;;5089155;28;20048;-69
2022/11/03 09:05:11;;;;;;;7.53;1.35;;;12.10;99.90;;;;;;5083741;28;20047;-69
2022/11/03 09:07:40;;;;;;;12.35;1.73;;;12.10;99.90;;;;;;5087235;28;20036;-79
2022/11/03 09:10:08;;;;;;;12.20;1.83;;;12.10;99.90;;;;;;5083905;28;20036;-77
2022/11/03 09:12:35;;;;;;;10.23;2.05;;;12.10;99.90;;;;;;5088339;28;20045;-72
2022/11/03 09:15:02;;;;;;;10.43;2.10;;;12.10;99.90;;;;;;5082425;28;20048;-69
2022/11/03 09:17:27;;;;;;;7.20;1.95;;;12.10;99.90;;;;;;5081598;28;20225;-68
2022/11/03 09:19:53;;;;;;;9.88;1.83;;;12.10;99.90;;;;;;5085360;28;20422;-69
2022/11/03 09:22:19;;;;;;;10.77;2.63;;;12.10;99.90;;;;;;5082278;28;20071;-81
2022/11/03 09:24:44;;;;;;;12.32;2.42;;;12.10;99.90;;;;;;5082775;28;20044;-70
2022/11/03 09:27:10;;;;;;;12.05;3.20;;;12.10;99.90;;;;;;5071762;28;20447;-69
2022/11/03 09:29:36;;;;;;;14.88;1.83;;;12.10;99.90;;;;;;5074410;28;20495;-69
2022/11/03 09:32:01;;;;;;;7.18;1.65;;;12.10;99.90;;;;;;5084442;28;20402;-68
2022/11/03 09:34:28;;;;;;;13.05;2.28;;;12.20;99.90;;;;;;5089158;28;20036;-79
2022/11/03 09:36:54;;;;;;;7.15;1.83;;;12.20;99.90;;;;;;5086439;28;20062;-69
2022/11/03 09:39:20;;;;;;;9.27;1.98;;;12.30;99.90;;;;;;5083673;28;20079;-69
2022/11/03 09:41:46;;;;;;;8.55;1.88;;;12.30;99.90;;;;;;5089651;28;20067;-69
2022/11/03 09:44:12;;;;;;;10.27;2.08;;;12.40;99.90;;;;;;5091965;28;20050;-72
2022/11/03 09:46:38;;;;;;;8.63;2.05;;;12.50;99.90;;;;;;5095038;28;20116;-69
2022/11/03 09:49:05;;;;;;;10.30;1.35;;;12.60;99.90;;;;;;5082292;28;20052;-69
2022/11/03 09:51:33;;;;;;;12.75;1.80;;;12.70;99.90;;;;;;5076068;28;20040;-69
2022/11/03 09:54:03;;;;;;;10.98;2.35;;;12.70;99.90;;;;;;5089975;28;20101;-68
2022/11/03 09:56:30;;;;;;;14.15;2.85;;;12.80;99.90;;;;;;5094851;28;20158;-69
2022/11/03 09:58:55;;;;;;;5.95;1.33;;;12.90;99.90;;;;;;5085839;28;20393;-69
2022/11/03 10:01:22;;;;;;;7.88;1.52;;;13.00;99.90;;;;;;5085013;28;20038;-70
2022/11/03 10:03:47;;;;;;;15.30;2.72;;;13.00;99.90;;;;;;5087669;28;20048;-68
2022/11/03 10:06:15;;;;;;;5.60;1.30;;;13.10;99.90;;;;;;5080358;28;20091;-69
2022/11/03 10:08:43;;;;;;;5.60;1.60;;;13.10;99.90;;;;;;5080276;28;20040;-69
2022/11/03 10:11:09;;;;;;;12.20;2.00;;;13.10;99.90;;;;;;5085253;28;20039;-69
2022/11/03 10:14:01;;;;;;;4.68;1.48;;;13.20;99.90;;;;;;5081053;28;20043;-69
2022/11/03 10:16:27;;;;;;;13.20;2.40;;;13.20;99.90;;;;;;5071405;28;20052;-69
2022/11/03 10:18:53;;;;;;;18.45;2.58;;;13.20;99.90;;;;;;5068615;28;20414;-84
2022/11/03 10:21:26;;;;;;;14.80;2.08;;;13.30;99.90;;;;;;5079567;28;20033;-69
2022/11/03 10:23:51;;;;;;;16.10;2.80;;;13.30;99.90;;;;;;5090546;28;20052;-69
2022/11/03 10:26:19;;;;;;;8.10;2.08;;;13.40;99.90;;;;;;5083736;28;20066;-69
2022/11/03 10:28:56;;;;;;;13.43;2.58;;;13.40;99.90;;;;;;5081338;28;20044;-68
2022/11/03 10:31:22;;;;;;;9.35;1.52;;;13.50;99.90;;;;;;5082625;28;20048;-69
2022/11/03 10:33:53;;;;;;;7.95;2.17;;;13.60;99.90;;;;;;5084819;28;20040;-68
2022/11/03 10:36:21;;;;;;;10.90;2.25;;;13.70;99.90;;;;;;5086665;28;20056;-69
2022/11/03 10:38:47;;;;;;;4.53;1.60;;;13.70;99.90;;;;;;5073633;28;20046;-69
2022/11/03 10:41:24;;;;;;;9.00;2.20;;;13.80;99.90;;;;;;5100700;28;20040;-71
2022/11/03 10:44:10;;;;;;;7.15;1.98;;;13.80;99.90;;;;;;5075120;28;20039;-68
2022/11/03 10:46:37;;;;;;;8.40;1.75;;;13.80;99.90;;;;;;5071530;28;20053;-68
2022/11/03 10:49:09;;;;;;;7.40;1.33;;;13.80;99.90;;;;;;5072314;28;20040;-68
2022/11/03 10:51:35;;;;;;;14.10;2.00;;;13.80;99.90;;;;;;5087159;28;20051;-69
2022/11/03 10:54:03;;;;;;;11.07;2.28;;;13.70;99.90;;;;;;5090458;28;20082;-69
2022/11/03 10:56:30;;;;;;;6.30;1.77;;;13.80;99.90;;;;;;5089495;28;20048;-68
2022/11/03 10:58:57;;;;;;;10.07;2.03;;;13.80;99.90;;;;;;5075640;28;20051;-68
2022/11/03 11:01:23;;;;;;;9.25;1.88;;;13.70;99.90;;;;;;5087656;28;20050;-68
2022/11/03 11:03:49;;;;;;;14.95;2.30;;;13.70;99.90;;;;;;5085410;28;20036;-68
2022/11/03 11:06:24;;;;;;;13.48;2.83;;;13.80;99.90;;;;;;5086197;28;20129;-69
2022/11/03 11:08:56;;;;;;;8.07;1.50;;;13.90;99.90;;;;;;5088209;28;20051;-75
2022/11/03 11:11:23;;;;;;;3.42;1.17;;;13.90;99.90;;;;;;5087124;28;20055;-69
2022/11/03 11:14:26;;;;;;;9.90;1.70;;;14.10;99.90;;;;;;5078281;28;20094;-69
2022/11/03 11:16:56;;;;;;;10.63;2.38;;;14.20;99.90;;;;;;5073825;28;20043;-68
2022/11/03 11:19:24;;;;;;;7.88;2.25;;;14.30;99.90;;;;;;5086840;28;20040;-68
2022/11/03 11:21:59;;;;;;;8.80;1.95;;;14.40;99.90;;;;;;5087045;28;20402;-69
2022/11/03 11:24:42;;;;;;;16.92;2.65;;;14.50;99.90;;;;;;5087263;28;20078;-69
2022/11/03 11:27:30;;;;;;;14.77;2.30;;;14.60;99.90;;;;;;5072931;28;20056;-69
2022/11/03 11:30:00;;;;;;;18.45;2.33;;;14.60;99.90;;;;;;5087636;28;20055;-68
2022/11/03 11:32:38;;;;;;;8.95;2.00;;;14.60;99.90;;;;;;5084836;28;20044;-68
2022/11/03 11:35:25;;;;;;;9.75;2.00;;;14.60;99.90;;;;;;5086570;28;20532;-69
2022/11/03 11:37:53;;;;;;;11.10;1.90;;;14.60;99.90;;;;;;5054522;28;20528;-69
2022/11/03 11:40:18;;;;;;;11.95;2.03;;;14.60;99.90;;;;;;5083966;28;20490;-69
2022/11/03 11:43:05;;;;;;;15.13;2.65;;;14.60;99.90;;;;;;5086051;28;20059;-85
2022/11/03 11:46:08;;;;;;;9.43;1.83;;;14.80;99.90;;;;;;5085758;28;20144;-76
2022/11/03 11:48:35;;;;;;;8.50;2.08;;;14.90;99.90;;;;;;5084491;28;20120;-84
2022/11/03 11:51:02;;;;;;;13.38;1.85;;;15.00;99.90;;;;;;5087102;28;20075;-69
2022/11/03 11:53:37;;;;;;;9.13;1.85;;;15.20;99.90;;;;;;5068119;28;20040;-69
2022/11/03 11:56:04;;;;;;;11.18;2.30;;;15.10;99.90;;;;;;5086697;28;20040;-69
2022/11/03 11:58:51;;;;;;;7.75;2.20;;;15.10;99.90;;;;;;5086094;28;20036;-69
2022/11/03 12:01:21;;;;;;;1.42;0.80;;;15.00;99.90;;;;;;5085800;28;20052;-69
2022/11/03 12:03:49;;;;;;;7.90;1.50;;;14.90;99.90;;;;;;5073306;28;20494;-69
2022/11/03 12:06:15;;;;;;;7.72;1.95;;;14.80;99.90;;;;;;5084953;28;20093;-69
2022/11/03 12:08:42;;;;;;;7.80;1.73;;;14.80;99.90;;;;;;5086061;28;20055;-70
2022/11/03 12:11:10;;;;;;;5.55;1.63;;;14.80;99.90;;;;;;5095448;28;20048;-69
2022/11/03 12:13:42;;;;;;;9.52;1.63;;;14.70;99.90;;;;;;5079972;28;20071;-71
2022/11/03 12:16:08;;;;;;;10.93;1.70;;;14.70;99.90;;;;;;5078086;28;20044;-80
2022/11/03 12:18:37;;;;;;;10.25;2.50;;;14.70;99.90;;;;;;5077298;28;20028;-69
2022/11/03 12:21:05;;;;;;;8.65;2.20;;;14.70;99.90;;;;;;5086413;28;20083;-70
2022/11/03 12:23:32;;;;;;;17.85;2.17;;;14.60;99.90;;;;;;5084433;28;20048;-69
2022/11/03 12:25:58;;;;;;;6.00;1.45;;;14.60;99.90;;;;;;5074368;28;20127;-79
2022/11/03 12:28:34;;;;;;;9.57;2.05;;;14.60;99.90;;;;;;5074899;28;20116;-70
2022/11/03 12:31:01;;;;;;;9.40;1.55;;;14.60;99.90;;;;;;5090213;28;20040;-82
2022/11/03 12:33:27;;;;;;;8.98;1.77;;;14.60;99.90;;;;;;5074120;28;20098;-69
2022/11/03 12:35:55;;;;;;;6.20;2.08;;;14.50;99.90;;;;;;5070723;28;20514;-70
2022/11/03 12:38:21;;;;;;;8.85;1.90;;;14.50;99.90;;;;;;5068104;28;20573;-73
2022/11/03 12:40:47;;;;;;;8.50;1.80;;;14.60;99.90;;;;;;5071968;28;20862;-69
2022/11/03 12:43:13;;;;;;;10.55;2.85;;;14.50;99.90;;;;;;5072892;28;20060;-69
2022/11/03 12:45:40;;;;;;;8.35;2.28;;;14.50;99.90;;;;;;5071379;28;20041;-71
2022/11/03 12:48:07;;;;;;;9.20;1.65;;;14.50;99.90;;;;;;5078693;28;20123;-71
2022/11/03 12:50:34;;;;;;;6.55;1.58;;;14.50;99.90;;;;;;5088912;28;20044;-71
2022/11/03 12:52:59;;;;;;;6.68;1.90;;;14.40;99.90;;;;;;5075550;28;20051;-69
2022/11/03 12:55:25;;;;;;;10.65;2.17;;;14.40;99.90;;;;;;5089618;28;20040;-68
2022/11/03 12:57:51;;;;;;;8.63;1.00;;;14.40;99.90;;;;;;5067004;28;20044;-70
2022/11/03 13:00:17;;;;;;;8.02;1.80;;;14.30;99.10;;;;;;5078372;28;20089;-70
2022/11/03 13:02:43;;;;;;;7.20;1.50;;;14.30;99.20;;;;;;5069421;28;20431;-70
2022/11/03 13:05:09;;;;;;;6.32;1.70;;;14.30;98.70;;;;;;5073499;28;20037;-76
2022/11/03 13:07:34;;;;;;;3.90;1.88;;;14.20;98.80;;;;;;5081571;28;20094;-71
2022/11/03 13:10:00;;;;;;;6.80;1.63;;;14.20;98.60;;;;;;5103151;28;20036;-75
2022/11/03 13:12:32;;;;;;;13.50;2.03;;;14.20;98.10;;;;;;5078690;28;20067;-70
2022/11/03 13:15:01;;;;;;;7.15;1.73;;;14.10;98.50;;;;;;5084911;28;20082;-76
2022/11/03 13:17:27;;;;;;;7.18;2.40;;;14.10;99.00;;;;;;5084682;28;20081;-70
2022/11/03 13:19:53;;;;;;;7.13;1.92;;;14.10;99.60;;;;;;5083532;28;20040;-71